ADDS METAR Data INFO
IDs: Format: Raw Decoded Include TAF

Data at: 1351 UTC 23 Jun 2018

KXPY 231335Z AUTO 22009G15KT 10SM CLR 30/25 A2997 RMK A01
KXPY 231315Z AUTO 22009G15KT 9SM CLR 29/24 A2998 RMK A01
KXPY 231255Z AUTO 23012KT 9SM FEW021 FEW043 29/25 A2997 RMK A01
KXPY 231235Z AUTO 22010KT 9SM FEW021 FEW027 FEW035 29/24 A2997 RMK A01
KXPY 231210Z AUTO 23008KT 9SM FEW021 FEW047 29/25 A2997 RMK A01
KXPY 231155Z AUTO 23008KT 9SM FEW021 FEW032 FEW041 28/25 A2996 RMK A01
KXPY 231135Z AUTO 23008KT 9SM FEW021 FEW031 FEW047 28/25 A2996 RMK A01
KXPY 231115Z AUTO 23010G15KT 9SM FEW021 FEW027 FEW033 28/25 A2995 RMK A01
KXPY 231055Z AUTO 22009KT 10SM SCT021 SCT025 28/25 A2994 RMK A01
KXPY 231035Z AUTO 22010KT 10SM SCT021 SCT025 28/25 A2994 RMK A01
KXPY 231015Z AUTO 22011G16KT 10SM FEW020 28/24 A2993 RMK A01
KXPY 230955Z AUTO 22011G17KT 10SM CLR 28/25 A2993 RMK A01
KXPY 230935Z AUTO 21013KT 9SM FEW018 28/25 A2992 RMK A01
KXPY 230915Z AUTO 21010G17KT 10SM FEW019 FEW026 FEW031 28/25 A2992 RMK A01
KXPY 230855Z AUTO 22013G19KT 10SM SCT019 BKN026 BKN031 29/25 A2992 RMK A01
KXPY 230835Z AUTO 21012G18KT 10SM SCT020 SCT026 28/25 A2992 RMK A01
KXPY 230815Z AUTO 20009G16KT 10SM SCT020 28/25 A2991 RMK A01
KXPY 230755Z AUTO 21010G18KT 10SM FEW020 FEW034 28/25 A2991 RMK A01
KXPY 230735Z AUTO 21011G16KT 10SM SCT020 SCT025 SCT034 28/25 A2992 RMK A01
KXPY 230715Z AUTO 20012G18KT 10SM FEW020 SCT025 SCT031 28/25 A2992 RMK A01
KXPY 230655Z AUTO 21012KT 10SM FEW020 FEW025 28/25 A2992 RMK A01
KXPY 230635Z AUTO 20009G18KT 10SM FEW020 FEW042 28/24 A2992 RMK A01
KXPY 230615Z AUTO 21009G15KT 10SM SCT020 SCT029 BKN042 28/25 A2993 RMK A01
KXPY 230555Z AUTO 20010KT 10SM FEW021 FEW028 SCT039 28/25 A2992 RMK A01
KXPY 230535Z AUTO 21009KT 10SM FEW021 SCT028 SCT039 28/24 A2993 RMK A01
KXPY 230515Z AUTO 22007KT 10SM SCT022 SCT029 28/24 A2993 RMK A01
KXPY 230455Z AUTO 21008KT 10SM SCT023 28/24 A2993 RMK A01
KXPY 230435Z AUTO 22007G12KT 10SM SCT023 SCT029 SCT035 28/24 A2993 RMK A01
KXPY 230415Z AUTO 21007KT 10SM SCT023 BKN029 BKN035 28/24 A2994 RMK A01
KXPY 230355Z AUTO 22005KT 10SM SCT023 SCT030 28/24 A2994 RMK A01
KXPY 230335Z AUTO 22007KT 10SM FEW022 28/24 A2993 RMK A01
KXPY 230315Z AUTO 23009KT 10SM FEW023 28/24 A2993 RMK A01
KXPY 230255Z AUTO 21008G13KT 10SM SCT024 SCT033 28/24 A2992 RMK A01
KXPY 230235Z AUTO 22007KT 10SM SCT025 SCT030 SCT036 29/24 A2992 RMK A01
KXPY 230215Z AUTO 23008KT 10SM FEW023 29/24 A2991 RMK A01
KXPY 230155Z AUTO 22009KT 10SM BKN023 BKN030 29/24 A2990 RMK A01
KXPY 230135Z AUTO 22007KT 10SM SCT023 29/24 A2990 RMK A01
KXPY 230115Z AUTO 24011KT 10SM FEW024 FEW031 29/24 A2990 RMK A01
KXPY 230055Z AUTO 24009KT 10SM SCT025 29/24 A2991 RMK A01
KXPY 230035Z AUTO 24011KT 10SM FEW025 FEW034 29/24 A2991 RMK A01
KXPY 230010Z AUTO 23009G15KT 10SM FEW025 SCT030 29/24 A2991 RMK A01
KXPY 222355Z AUTO 24013KT 10SM SCT026 30/23 A2990 RMK A01
KXPY 222335Z AUTO 23010G16KT 10SM FEW025 FEW032 30/24 A2991 RMK A01
KXPY 222315Z AUTO 23010G16KT 10SM SCT025 SCT032 30/24 A2990 RMK A01
KXPY 222255Z AUTO 23011G16KT 9SM FEW028 FEW034 30/24 A2991 RMK A01
KXPY 222235Z AUTO 24012G18KT 10SM SCT028 SCT035 30/23 A2991 RMK A01
KXPY 222215Z AUTO 25011G16KT 10SM FEW026 SCT033 30/23 A2991 RMK A01
KXPY 222155Z AUTO 24012G18KT 9SM FEW026 SCT037 30/24 A2992 RMK A01
KXPY 222135Z AUTO 23014KT 9SM SCT024 SCT031 30/24 A2992 RMK A01
KXPY 222115Z AUTO 23011G18KT 9SM SCT026 BKN031 30/24 A2992 RMK A01
KXPY 222055Z AUTO 23012G17KT 9SM SCT028 SCT035 31/23 A2993 RMK A01
KXPY 222035Z AUTO 25013KT 9SM BKN026 BKN032 BKN038 31/23 A2993 RMK A01
KXPY 222015Z AUTO 25012G19KT 9SM BKN026 BKN033 BKN039 31/24 A2994 RMK A01
KXPY 221955Z AUTO 24011G17KT 10SM SCT026 BKN039 30/24 A2995 RMK A01
KXPY 221935Z AUTO 24012KT 9SM FEW025 SCT033 30/23 A2995 RMK A01
KXPY 221915Z AUTO 25012G18KT 9SM FEW026 FEW032 31/23 A2996 RMK A01
KXPY 221855Z AUTO 24013KT 9SM SCT025 SCT031 SCT040 31/23 A2996 RMK A01
KXPY 221835Z AUTO 23011G18KT 9SM SCT024 SCT033 31/24 A2998 RMK A01
KXPY 221815Z AUTO 23012G17KT 9SM SCT025 SCT032 30/24 A2998 RMK A01
KXPY 221755Z AUTO 23011G18KT 9SM SCT024 SCT031 30/24 A2998 RMK A01
KXPY 221735Z AUTO 25012G19KT 9SM FEW025 30/24 A2998 RMK A01
KXPY 221715Z AUTO 24012G18KT 10SM FEW025 FEW030 30/24 A2998 RMK A01
KXPY 221655Z AUTO 24014KT 9SM SCT023 SCT030 30/24 A2998 RMK A01
KXPY 221635Z AUTO 22012G18KT 8SM SCT023 BKN030 30/24 A2998 RMK A01
KXPY 221615Z AUTO 23012G19KT 9SM SCT023 SCT031 30/24 A2997 RMK A01
KXPY 221555Z AUTO 22010G17KT 9SM SCT023 SCT030 SCT034 30/24 A2997 RMK A01
KXPY 221535Z AUTO 22012G17KT 9SM FEW022 30/24 A2997 RMK A01
KXPY 221515Z AUTO 23013KT 9SM SCT021 30/24 A2997 RMK A01
KXPY 221455Z AUTO 22011KT 8SM FEW022 30/24 A2997 RMK A01
KXPY 221435Z AUTO 23010KT 9SM SCT019 29/24 A2997 RMK A01
KXPY 221415Z AUTO 25011KT 8SM BKN020 BKN024 29/25 A2997 RMK A01
KXPY 221355Z AUTO 23010KT 8SM CLR 29/24 A2997 RMK A01
KXPY 221335Z AUTO 23009KT 8SM FEW021 29/24 A2996 RMK A01
KXPY 221315Z AUTO 23011KT 8SM SCT020 29/24 A2996 RMK A01
KXPY 221255Z AUTO 25009KT 8SM FEW020 29/24 A2996 RMK A01
KXPY 221235Z AUTO 24007KT 8SM CLR 29/24 A2996 RMK A01
KXPY 221215Z AUTO 24007KT 8SM FEW020 29/24 A2995 RMK A01
KXPY 221155Z AUTO 24007KT 8SM SCT020 28/25 A2995 RMK A01
KXPY 221135Z AUTO 24007KT 8SM CLR 28/24 A2995 RMK A01
KXPY 221115Z AUTO 23009KT 9SM CLR 28/24 A2994 RMK A01
KXPY 221055Z AUTO 25007KT 9SM CLR 28/24 A2993 RMK A01
KXPY 221035Z AUTO 24010KT 10SM CLR 28/24 A2993 RMK A01
KXPY 221015Z AUTO 24008KT 9SM CLR 28/25 A2993 RMK A01
KXPY 220955Z AUTO 24009G15KT 10SM FEW020 28/25 A2993 RMK A01
KXPY 220935Z AUTO 23010KT 10SM FEW020 FEW026 28/24 A2993 RMK A01
KXPY 220915Z AUTO 23008G14KT 10SM SCT020 SCT025 SCT035 28/25 A2992 RMK A01
KXPY 220855Z AUTO 23010G15KT 10SM BKN020 BKN035 28/25 A2992 RMK A01
KXPY 220835Z AUTO 23009G14KT 9SM SCT021 28/25 A2992 RMK A01
KXPY 220815Z AUTO 23008KT 10SM FEW019 28/25 A2992 RMK A01
KXPY 220755Z AUTO 22009KT 9SM FEW019 28/25 A2992 RMK A01
KXPY 220735Z AUTO 22007KT 9SM FEW020 28/25 A2992 RMK A01
KXPY 220715Z AUTO 22007KT 9SM FEW021 FEW030 28/24 A2992 RMK A01
KXPY 220655Z AUTO 23009KT 10SM SCT021 SCT033 28/24 A2992 RMK A01
KXPY 220635Z AUTO 23008KT 10SM SCT020 SCT036 28/25 A2993 RMK A01
KXPY 220615Z AUTO 23008KT 10SM CLR 28/24 A2993 RMK A01
KXPY 220555Z AUTO 22006KT 10SM FEW021 SCT026 SCT032 28/24 A2993 RMK A01
KXPY 220535Z AUTO 21005KT 9SM SCT021 BKN026 BKN032 28/24 A2994 RMK A01
KXPY 220515Z AUTO 22006KT 10SM FEW023 FEW030 28/24 A2995 RMK A01
KXPY 220455Z AUTO 23006KT 9SM FEW024 FEW030 FEW036 28/24 A2995 RMK A01
KXPY 220435Z AUTO 23004KT 10SM CLR 28/24 A2996 RMK A01
KXPY 220415Z AUTO 23005KT 9SM FEW025 FEW034 28/24 A2996 RMK A01
KXPY 220355Z AUTO 22007KT 9SM SCT023 BKN029 BKN033 28/24 A2995 RMK A01
KXPY 220335Z AUTO 22005KT 9SM BKN024 BKN029 28/24 A2995 RMK A01
KXPY 220315Z AUTO 22005KT 10SM BKN024 BKN029 28/24 A2994 RMK A01
KXPY 220255Z AUTO 22005KT 9SM SCT022 28/24 A2994 RMK A01
KXPY 220235Z AUTO 21006KT 9SM CLR 28/24 A2993 RMK A01
KXPY 220215Z AUTO 22006KT 9SM CLR 28/24 A2993 RMK A01
KXPY 220155Z AUTO 22005KT 9SM CLR 28/24 A2993 RMK A01